Time;durP1;ratioP1;P1;durP2;ratioP2;P2;SDS_P1;SDS_P2;PMS_P1;PMS_P2;Temp;Humidity;BMP_temperature;BMP_pressure;BME280_temperature;BME280_humidity;BME280_pressure;Samples;Min_cycle;Max_cycle;Signal;HPM_P1;HPM_P2
2022/10/15 00:00:50;;;;;;;9.43;5.88;;;8.00;90.30;;;;;;5057052;28;20051;-78
2022/10/15 00:03:16;;;;;;;9.30;5.72;;;8.00;90.30;;;;;;5060897;28;20127;-76
2022/10/15 00:05:42;;;;;;;9.65;6.15;;;8.00;90.40;;;;;;5052864;28;20066;-78
2022/10/15 00:08:10;;;;;;;9.75;5.22;;;8.00;90.40;;;;;;5060118;28;20017;-77
2022/10/15 00:10:37;;;;;;;8.20;5.70;;;8.00;90.50;;;;;;5061185;28;20102;-77
2022/10/15 00:13:04;;;;;;;12.18;6.15;;;8.00;90.50;;;;;;5060418;28;20025;-77
2022/10/15 00:15:30;;;;;;;11.05;5.38;;;8.00;90.50;;;;;;5056159;28;20094;-77
2022/10/15 00:17:57;;;;;;;8.18;6.05;;;8.00;90.50;;;;;;5060472;28;20028;-76
2022/10/15 00:20:22;;;;;;;10.73;5.78;;;8.00;90.50;;;;;;5065869;28;20059;-78
2022/10/15 00:22:48;;;;;;;9.90;5.85;;;8.00;90.50;;;;;;5061648;28;20029;-77
2022/10/15 00:25:14;;;;;;;11.90;6.05;;;8.00;90.50;;;;;;5043609;28;20428;-77
2022/10/15 00:27:40;;;;;;;9.52;5.93;;;8.00;90.50;;;;;;5047978;28;20063;-76
2022/10/15 00:30:06;;;;;;;8.32;6.32;;;8.00;90.40;;;;;;5052327;28;20025;-78
2022/10/15 00:32:32;;;;;;;8.98;6.20;;;8.00;90.40;;;;;;5052426;28;20025;-78
2022/10/15 00:34:58;;;;;;;8.52;5.60;;;7.90;90.40;;;;;;5048423;28;20041;-76
2022/10/15 00:37:24;;;;;;;11.07;6.15;;;7.90;90.40;;;;;;5051108;28;20025;-76
2022/10/15 00:39:50;;;;;;;7.55;5.95;;;7.90;90.30;;;;;;5055808;28;20029;-77
2022/10/15 00:42:16;;;;;;;11.27;6.22;;;7.90;90.40;;;;;;5053103;28;20095;-78
2022/10/15 00:44:46;;;;;;;8.93;5.60;;;7.90;90.30;;;;;;5053696;28;20021;-78
2022/10/15 00:47:17;;;;;;;8.07;5.57;;;7.90;90.20;;;;;;5051599;28;20018;-77
2022/10/15 00:49:46;;;;;;;8.55;5.63;;;8.00;90.20;;;;;;5054247;28;20076;-75
2022/10/15 00:52:39;;;;;;;11.15;5.80;;;8.00;90.10;;;;;;5054193;28;20418;-77
2022/10/15 00:55:19;;;;;;;10.90;6.75;;;8.00;90.00;;;;;;5057197;28;20032;-76
2022/10/15 00:57:49;;;;;;;9.63;5.78;;;8.00;89.70;;;;;;5046099;28;20901;-76
2022/10/15 01:00:16;;;;;;;9.75;5.50;;;8.00;89.70;;;;;;5055589;28;20032;-76
2022/10/15 01:02:44;;;;;;;10.73;5.60;;;8.00;89.60;;;;;;5051175;28;20018;-76
2022/10/15 01:05:12;;;;;;;8.57;5.78;;;8.00;89.50;;;;;;5063331;28;20077;-77
2022/10/15 01:07:38;;;;;;;13.23;6.13;;;8.10;89.70;;;;;;5053128;28;20463;-75
2022/10/15 01:10:06;;;;;;;10.88;5.88;;;8.00;89.60;;;;;;5058571;28;20043;-77
2022/10/15 01:12:41;;;;;;;9.45;5.80;;;8.00;89.80;;;;;;5061770;28;20013;-77
2022/10/15 01:15:40;;;;;;;14.20;6.35;;;8.10;89.90;;;;;;5064397;28;20016;-77
2022/10/15 01:18:14;;;;;;;9.13;5.88;;;8.10;90.00;;;;;;5061246;28;20048;-78
2022/10/15 01:21:04;;;;;;;9.95;5.68;;;8.00;89.90;;;;;;5065168;28;20103;-77
2022/10/15 01:23:49;;;;;;;9.02;6.50;;;8.00;90.10;;;;;;5065339;28;20055;-77
2022/10/15 01:26:32;;;;;;;10.10;6.45;;;8.00;90.00;;;;;;5055863;28;20036;-78
2022/10/15 01:29:22;;;;;;;11.15;7.07;;;8.00;90.10;;;;;;5053981;28;20029;-76
2022/10/15 01:31:52;;;;;;;10.02;6.05;;;8.00;90.20;;;;;;5052518;28;20021;-77
2022/10/15 01:34:29;;;;;;;12.80;6.72;;;8.00;90.20;;;;;;5054173;28;20045;-77
2022/10/15 01:37:07;;;;;;;11.68;6.85;;;8.00;90.40;;;;;;5053832;28;20017;-77
2022/10/15 01:39:41;;;;;;;13.80;6.72;;;8.00;90.10;;;;;;5054499;28;20033;-79
2022/10/15 01:42:17;;;;;;;15.07;8.02;;;8.00;90.20;;;;;;5021799;28;20021;-76
2022/10/15 01:44:50;;;;;;;13.30;6.68;;;7.90;90.20;;;;;;5053644;28;20021;-78
2022/10/15 01:47:25;;;;;;;10.68;7.63;;;8.00;90.20;;;;;;5054886;28;20155;-77
2022/10/15 01:49:53;;;;;;;13.38;6.97;;;8.00;90.10;;;;;;5055102;28;20029;-77
2022/10/15 01:52:24;;;;;;;12.02;7.13;;;7.90;90.10;;;;;;5056515;28;20026;-79
2022/10/15 01:54:52;;;;;;;10.30;7.28;;;7.90;90.20;;;;;;5055623;28;20103;-78
2022/10/15 01:57:20;;;;;;;12.48;8.20;;;7.90;90.20;;;;;;5064784;28;20023;-77
2022/10/15 01:59:46;;;;;;;11.32;7.22;;;7.90;90.20;;;;;;5038515;28;20029;-78
2022/10/15 02:02:12;;;;;;;9.30;7.05;;;7.90;90.20;;;;;;5053622;28;20404;-76
2022/10/15 02:04:38;;;;;;;12.23;7.22;;;7.90;90.20;;;;;;5067744;28;20100;-76
2022/10/15 02:07:14;;;;;;;10.30;7.50;;;7.90;90.20;;;;;;5053529;28;20025;-77
2022/10/15 02:09:48;;;;;;;12.05;7.50;;;8.00;90.00;;;;;;5052870;28;20032;-79
2022/10/15 02:12:33;;;;;;;16.65;7.97;;;7.90;89.90;;;;;;5036014;28;20120;-79
2022/10/15 02:15:19;;;;;;;10.88;7.88;;;7.90;90.00;;;;;;5054111;28;20100;-75
2022/10/15 02:18:12;;;;;;;11.45;7.25;;;7.90;90.00;;;;;;5014357;28;20040;-76
2022/10/15 02:20:49;;;;;;;12.85;7.68;;;7.90;90.00;;;;;;5055238;28;20119;-77
2022/10/15 02:23:23;;;;;;;14.18;7.10;;;7.90;89.90;;;;;;5058553;28;20021;-75
2022/10/15 02:25:51;;;;;;;10.43;6.72;;;8.00;89.70;;;;;;5059566;28;20025;-77
2022/10/15 02:28:17;;;;;;;;;;;7.90;89.50;;;;;;5059982;28;20439;-76
2022/10/15 02:30:47;;;;;;;11.77;6.85;;;7.90;89.50;;;;;;5057047;28;20266;-78
2022/10/15 02:33:15;;;;;;;8.23;5.80;;;7.90;89.50;;;;;;5060566;28;20186;-77
2022/10/15 02:35:42;;;;;;;17.60;7.45;;;7.80;89.40;;;;;;5035074;28;20095;-78
2022/10/15 02:38:11;;;;;;;14.80;5.97;;;7.80;89.60;;;;;;5053553;28;20025;-77
2022/10/15 02:40:40;;;;;;;8.75;6.25;;;7.90;89.80;;;;;;5055704;28;20021;-77
2022/10/15 02:43:09;;;;;;;10.25;5.70;;;7.90;89.70;;;;;;5053980;28;20067;-77
2022/10/15 02:45:36;;;;;;;8.40;5.35;;;7.80;89.60;;;;;;5054359;28;20486;-76
2022/10/15 02:48:02;;;;;;;9.25;5.75;;;7.80;89.70;;;;;;5053756;28;20033;-76
2022/10/15 02:50:28;;;;;;;10.23;5.82;;;7.80;89.70;;;;;;5055223;28;20047;-77
2022/10/15 02:52:54;;;;;;;9.05;5.80;;;7.90;89.90;;;;;;5054264;28;20080;-77
2022/10/15 02:55:19;;;;;;;10.57;6.18;;;7.80;89.90;;;;;;5054979;28;20017;-78
2022/10/15 02:57:45;;;;;;;12.25;6.90;;;7.90;89.90;;;;;;5059270;28;20074;-76
2022/10/15 03:00:12;;;;;;;9.90;5.72;;;7.90;90.00;;;;;;5055041;28;20100;-76
2022/10/15 03:02:37;;;;;;;12.13;5.95;;;7.90;89.90;;;;;;5056936;28;20047;-76
2022/10/15 03:05:03;;;;;;;9.93;6.30;;;7.90;89.70;;;;;;5057449;28;20482;-78
2022/10/15 03:07:29;;;;;;;8.02;6.18;;;7.90;89.50;;;;;;5050973;28;20062;-75
2022/10/15 03:09:55;;;;;;;9.05;5.97;;;7.90;89.50;;;;;;5052279;28;20041;-76
2022/10/15 03:12:22;;;;;;;10.07;5.85;;;7.90;89.40;;;;;;5061932;28;20056;-75
2022/10/15 03:14:48;;;;;;;10.27;6.07;;;7.90;89.40;;;;;;5039913;28;20025;-75
2022/10/15 03:17:14;;;;;;;10.32;5.63;;;7.90;89.30;;;;;;5064216;28;20344;-76
2022/10/15 03:19:40;;;;;;;7.38;5.38;;;7.80;89.20;;;;;;5059542;28;20779;-77
2022/10/15 03:22:06;;;;;;;10.90;6.53;;;7.90;89.10;;;;;;5064217;28;20028;-77
2022/10/15 03:24:32;;;;;;;9.18;6.32;;;7.80;88.80;;;;;;5062511;28;20483;-77
2022/10/15 03:26:57;;;;;;;8.32;5.80;;;7.80;88.90;;;;;;5064078;28;20427;-76
2022/10/15 03:29:23;;;;;;;9.73;5.20;;;7.80;89.00;;;;;;5056247;28;20082;-77
2022/10/15 03:31:49;;;;;;;9.90;5.53;;;7.80;88.90;;;;;;5063797;28;20021;-76
2022/10/15 03:34:15;;;;;;;10.55;6.35;;;7.80;88.80;;;;;;5058222;28;20493;-77
2022/10/15 03:36:41;;;;;;;12.10;6.65;;;7.90;88.70;;;;;;5047004;28;20024;-76
2022/10/15 03:39:07;;;;;;;11.70;6.28;;;7.90;88.70;;;;;;5053271;28;20064;-76
2022/10/15 03:41:33;;;;;;;9.35;6.35;;;7.90;88.70;;;;;;5051438;28;20501;-77
2022/10/15 03:44:04;;;;;;;11.60;7.38;;;7.90;88.80;;;;;;5035482;28;20498;-76
2022/10/15 03:46:31;;;;;;;11.07;7.32;;;7.90;88.90;;;;;;5054447;28;20757;-77
2022/10/15 03:48:56;;;;;;;10.70;7.28;;;7.90;88.80;;;;;;5055811;28;20694;-76
2022/10/15 03:51:23;;;;;;;11.77;6.55;;;7.90;88.70;;;;;;5054902;28;20031;-75
2022/10/15 03:53:48;;;;;;;12.32;6.88;;;7.90;88.60;;;;;;5058248;28;20047;-76
2022/10/15 03:56:15;;;;;;;8.52;6.30;;;7.90;88.60;;;;;;5054956;28;20025;-75
2022/10/15 03:58:41;;;;;;;16.40;7.45;;;7.90;88.40;;;;;;5061055;28;20068;-75
2022/10/15 04:01:11;;;;;;;11.07;6.72;;;7.90;88.30;;;;;;5056084;28;20100;-77
2022/10/15 04:03:37;;;;;;;11.27;7.22;;;8.00;88.10;;;;;;5055640;28;20037;-77
2022/10/15 04:06:04;;;;;;;10.93;7.32;;;8.00;87.90;;;;;;5039387;28;20048;-77
2022/10/15 04:08:29;;;;;;;10.02;6.97;;;8.00;87.60;;;;;;5042556;28;20029;-77
2022/10/15 04:10:55;;;;;;;11.25;7.03;;;8.00;87.60;;;;;;5054611;28;20561;-77
2022/10/15 04:13:21;;;;;;;11.23;7.45;;;8.00;87.60;;;;;;5060258;28;20112;-77
2022/10/15 04:15:47;;;;;;;12.02;6.85;;;8.00;87.70;;;;;;5064579;28;20027;-77
2022/10/15 04:18:13;;;;;;;10.75;7.55;;;8.00;87.70;;;;;;5060216;28;20397;-76
2022/10/15 04:20:41;;;;;;;14.35;8.50;;;8.00;87.60;;;;;;5066409;28;20038;-78
2022/10/15 04:23:07;;;;;;;14.15;7.65;;;8.00;87.70;;;;;;5063525;28;20053;-77
2022/10/15 04:25:35;;;;;;;13.52;7.90;;;8.00;87.60;;;;;;5067381;28;20056;-76
2022/10/15 04:28:01;;;;;;;12.85;8.15;;;8.10;87.60;;;;;;5063041;28;20025;-76
2022/10/15 04:30:26;;;;;;;14.60;7.60;;;8.10;87.60;;;;;;5043394;28;20029;-77
2022/10/15 04:32:52;;;;;;;11.75;7.78;;;8.10;87.60;;;;;;5061467;28;20439;-76
2022/10/15 04:35:19;;;;;;;9.82;8.18;;;8.10;87.80;;;;;;5052479;28;20482;-76
2022/10/15 04:37:46;;;;;;;13.43;8.55;;;8.10;87.70;;;;;;5034452;28;20020;-78
2022/10/15 04:40:12;;;;;;;11.73;7.97;;;8.10;87.50;;;;;;5056136;28;20035;-76
2022/10/15 04:42:38;;;;;;;11.20;7.50;;;8.10;87.20;;;;;;5055176;28;20043;-77
2022/10/15 04:45:06;;;;;;;9.50;6.85;;;8.10;86.60;;;;;;5056528;28;20021;-76
2022/10/15 04:47:32;;;;;;;13.50;8.50;;;8.10;86.50;;;;;;5056419;28;20371;-76
2022/10/15 04:49:57;;;;;;;13.40;7.25;;;8.20;86.40;;;;;;5057008;28;20043;-76
2022/10/15 04:52:26;;;;;;;10.95;7.15;;;8.10;86.30;;;;;;5058215;28;20021;-77
2022/10/15 04:54:51;;;;;;;10.93;6.68;;;8.20;86.60;;;;;;5039242;28;20067;-78
2022/10/15 04:57:17;;;;;;;12.80;6.47;;;8.20;86.40;;;;;;5060145;28;20041;-77
2022/10/15 04:59:44;;;;;;;11.30;7.20;;;8.20;86.40;;;;;;5058140;28;20096;-77
2022/10/15 05:02:10;;;;;;;17.60;8.57;;;8.20;86.10;;;;;;5068657;28;20044;-76
2022/10/15 05:04:36;;;;;;;11.40;7.22;;;8.30;85.50;;;;;;5059850;28;20108;-77
2022/10/15 05:07:02;;;;;;;11.48;7.18;;;8.30;85.20;;;;;;5064659;28;20462;-78
2022/10/15 05:09:34;;;;;;;12.68;7.47;;;8.30;85.10;;;;;;5060369;28;20067;-78
2022/10/15 05:11:59;;;;;;;21.25;8.68;;;8.30;85.10;;;;;;5064531;28;20119;-77
2022/10/15 05:14:25;;;;;;;16.85;8.07;;;8.30;85.00;;;;;;5056414;28;20096;-78
2022/10/15 05:16:51;;;;;;;13.85;8.55;;;8.40;84.90;;;;;;5039491;28;20073;-76
2022/10/15 05:19:17;;;;;;;11.23;6.78;;;8.40;84.90;;;;;;5036278;28;20478;-75
2022/10/15 05:21:43;;;;;;;10.00;6.38;;;8.40;84.90;;;;;;5036254;28;20021;-77
2022/10/15 05:24:10;;;;;;;10.50;6.70;;;8.40;84.90;;;;;;5054148;28;20025;-76
2022/10/15 05:26:36;;;;;;;12.93;7.22;;;8.30;84.70;;;;;;5054203;28;20482;-77
2022/10/15 05:29:02;;;;;;;10.88;6.50;;;8.30;84.90;;;;;;5053882;28;20114;-77
2022/10/15 05:31:30;;;;;;;16.05;6.90;;;8.30;84.70;;;;;;5053774;28;20024;-76
2022/10/15 05:33:56;;;;;;;11.23;6.72;;;8.30;84.70;;;;;;5053666;28;20414;-75
2022/10/15 05:36:25;;;;;;;10.85;6.60;;;8.30;84.90;;;;;;5070057;28;20032;-76
2022/10/15 05:38:57;;;;;;;14.30;7.55;;;8.40;84.90;;;;;;5073793;28;20021;-76
2022/10/15 05:41:24;;;;;;;11.20;6.20;;;8.40;84.70;;;;;;5073903;28;20139;-75
2022/10/15 05:43:53;;;;;;;8.00;5.95;;;8.50;84.70;;;;;;5052378;28;20021;-76
2022/10/15 05:46:19;;;;;;;10.13;6.57;;;8.50;84.70;;;;;;5064663;28;20021;-77
2022/10/15 05:48:53;;;;;;;9.63;5.97;;;8.50;84.90;;;;;;5074990;28;20413;-77
2022/10/15 05:51:20;;;;;;;9.70;6.00;;;8.60;84.30;;;;;;5069713;28;20021;-77
2022/10/15 05:53:46;;;;;;;10.45;5.75;;;8.60;83.90;;;;;;5069595;28;20093;-77
2022/10/15 05:56:13;;;;;;;11.48;6.43;;;8.60;83.60;;;;;;5071353;28;20382;-77
2022/10/15 05:58:39;;;;;;;10.52;5.53;;;8.70;83.60;;;;;;5073427;28;20024;-77
2022/10/15 06:01:11;;;;;;;11.43;6.65;;;8.70;83.40;;;;;;5072457;28;20064;-79
2022/10/15 06:03:37;;;;;;;11.65;6.00;;;8.70;83.50;;;;;;5066532;28;20027;-78
2022/10/15 06:06:03;;;;;;;11.23;6.17;;;8.80;83.30;;;;;;5068203;28;20051;-76
2022/10/15 06:08:30;;;;;;;9.05;5.53;;;8.80;83.20;;;;;;5064211;28;20721;-75
2022/10/15 06:11:02;;;;;;;13.73;6.68;;;8.80;83.10;;;;;;5073317;28;20441;-76
2022/10/15 06:13:31;;;;;;;12.00;6.25;;;8.80;83.00;;;;;;5053178;28;20372;-78
2022/10/15 06:15:57;;;;;;;10.90;6.15;;;8.70;83.70;;;;;;5070763;28;20470;-78
2022/10/15 06:18:23;;;;;;;11.90;7.10;;;8.80;83.30;;;;;;5073966;28;20036;-78
2022/10/15 06:20:52;;;;;;;9.63;6.10;;;8.70;83.40;;;;;;5054879;28;20120;-75
2022/10/15 06:23:18;;;;;;;8.43;5.72;;;8.70;83.40;;;;;;5075507;28;20032;-79
2022/10/15 06:25:44;;;;;;;9.80;6.78;;;8.70;83.70;;;;;;5068692;28;20055;-76
2022/10/15 06:28:10;;;;;;;10.35;5.65;;;8.80;83.80;;;;;;5072714;28;20060;-76
2022/10/15 06:30:36;;;;;;;12.20;7.03;;;8.80;83.70;;;;;;5072500;28;20432;-77
2022/10/15 06:33:02;;;;;;;15.32;6.82;;;8.80;83.50;;;;;;5051284;28;20104;-77
2022/10/15 06:35:33;;;;;;;12.25;6.75;;;8.90;83.60;;;;;;5052510;28;20070;-77
2022/10/15 06:38:03;;;;;;;9.40;5.70;;;9.00;83.30;;;;;;5064640;28;20020;-75
2022/10/15 06:40:30;;;;;;;7.63;6.03;;;9.00;82.50;;;;;;5071140;28;20020;-78
2022/10/15 06:43:03;;;;;;;7.82;5.10;;;9.00;82.50;;;;;;5063590;28;20097;-77
2022/10/15 06:45:29;;;;;;;6.15;4.55;;;9.00;81.90;;;;;;5072703;28;20016;-76
2022/10/15 06:47:55;;;;;;;6.13;3.80;;;8.90;81.40;;;;;;5072669;28;20032;-76
2022/10/15 06:50:20;;;;;;;9.48;4.60;;;8.90;80.80;;;;;;5072337;28;20126;-77
2022/10/15 06:52:46;;;;;;;10.55;4.72;;;8.90;80.70;;;;;;5072358;28;20024;-77
2022/10/15 06:55:13;;;;;;;6.93;4.22;;;8.80;80.30;;;;;;5072315;28;20032;-78
2022/10/15 06:57:39;;;;;;;14.57;5.32;;;8.90;80.40;;;;;;5072237;28;20381;-76
2022/10/15 07:00:05;;;;;;;9.48;4.93;;;8.90;80.30;;;;;;5066876;28;20025;-76
2022/10/15 07:02:33;;;;;;;9.07;4.75;;;9.00;80.20;;;;;;5068343;28;20028;-77
2022/10/15 07:04:59;;;;;;;11.38;4.78;;;9.10;80.00;;;;;;5072659;28;20027;-78
2022/10/15 07:07:25;;;;;;;7.20;5.00;;;9.20;79.70;;;;;;5073545;28;20088;-76
2022/10/15 07:09:52;;;;;;;10.68;5.05;;;9.20;79.50;;;;;;5066758;28;20061;-77
2022/10/15 07:12:20;;;;;;;10.38;4.95;;;9.30;79.40;;;;;;5069727;28;20381;-78
2022/10/15 07:14:48;;;;;;;8.70;5.20;;;9.30;79.30;;;;;;5053323;28;20028;-77
2022/10/15 07:17:15;;;;;;;11.45;5.65;;;9.30;79.30;;;;;;5048996;28;20025;-74
2022/10/15 07:19:40;;;;;;;9.00;5.90;;;9.40;79.10;;;;;;5075277;28;20092;-76
2022/10/15 07:22:06;;;;;;;11.52;5.53;;;9.40;78.80;;;;;;5054468;28;20037;-77
2022/10/15 07:24:32;;;;;;;9.50;5.20;;;9.50;78.60;;;;;;5056055;28;20398;-77
2022/10/15 07:26:58;;;;;;;12.73;6.03;;;9.50;78.40;;;;;;5074655;28;20016;-76
2022/10/15 07:29:24;;;;;;;9.27;5.97;;;9.60;78.10;;;;;;5053943;28;20120;-77
2022/10/15 07:31:50;;;;;;;12.00;4.93;;;9.60;78.00;;;;;;5075532;28;20056;-76
2022/10/15 07:34:16;;;;;;;8.57;5.93;;;9.70;77.60;;;;;;5059512;28;20053;-78
2022/10/15 07:36:42;;;;;;;8.38;5.47;;;9.60;77.20;;;;;;5045403;28;20375;-77
2022/10/15 07:39:09;;;;;;;12.90;5.90;;;9.60;77.30;;;;;;5053270;28;20059;-77
2022/10/15 07:41:35;;;;;;;10.05;5.55;;;9.60;77.20;;;;;;5053417;28;20017;-78
2022/10/15 07:44:02;;;;;;;14.88;5.28;;;9.60;77.30;;;;;;5058233;28;20394;-76
2022/10/15 07:46:34;;;;;;;9.73;4.83;;;9.70;77.00;;;;;;5036889;28;20021;-77
2022/10/15 07:49:00;;;;;;;11.57;5.80;;;9.70;76.40;;;;;;5055973;28;20075;-76
2022/10/15 07:51:35;;;;;;;14.07;5.07;;;9.70;77.10;;;;;;5056060;28;20025;-78
2022/10/15 07:54:01;;;;;;;14.00;5.47;;;9.80;76.40;;;;;;5035356;28;20025;-78
2022/10/15 07:56:29;;;;;;;12.10;5.45;;;9.90;76.40;;;;;;5038781;28;20037;-79
2022/10/15 07:58:55;;;;;;;11.73;4.95;;;9.90;76.30;;;;;;5042450;28;20032;-77
2022/10/15 08:01:21;;;;;;;12.52;5.35;;;9.90;76.00;;;;;;5037477;28;20386;-77
2022/10/15 08:03:51;;;;;;;10.15;5.18;;;10.00;76.00;;;;;;5058572;28;20096;-78
2022/10/15 08:06:18;;;;;;;14.52;6.03;;;10.00;76.00;;;;;;5056736;28;20024;-77
2022/10/15 08:08:44;;;;;;;9.02;5.25;;;10.10;75.80;;;;;;5039031;28;20048;-76
2022/10/15 08:11:15;;;;;;;9.95;5.07;;;10.20;75.00;;;;;;5036236;28;20395;-77
2022/10/15 08:13:42;;;;;;;12.48;6.13;;;10.20;74.80;;;;;;5054338;28;20036;-77
2022/10/15 08:16:13;;;;;;;9.15;5.25;;;10.20;74.60;;;;;;5060887;28;20036;-79
2022/10/15 08:18:39;;;;;;;7.90;4.90;;;10.30;74.30;;;;;;5042152;28;20025;-76
2022/10/15 08:21:06;;;;;;;8.88;5.03;;;10.30;73.40;;;;;;5059289;28;20036;-76
2022/10/15 08:23:33;;;;;;;8.82;5.57;;;10.30;73.40;;;;;;5056890;28;20025;-79
2022/10/15 08:26:00;;;;;;;7.35;4.70;;;10.40;73.20;;;;;;5057299;28;20033;-78
2022/10/15 08:28:30;;;;;;;10.50;5.90;;;10.50;73.10;;;;;;5057214;28;20554;-78
2022/10/15 08:30:57;;;;;;;10.63;4.90;;;10.50;73.00;;;;;;5056798;28;20037;-78
2022/10/15 08:33:24;;;;;;;9.68;6.15;;;10.50;72.60;;;;;;5041361;28;20060;-77
2022/10/15 08:35:52;;;;;;;6.43;5.27;;;10.50;72.60;;;;;;5047080;28;20449;-77
2022/10/15 08:38:17;;;;;;;8.27;5.97;;;10.60;72.60;;;;;;5058082;28;20028;-78
2022/10/15 08:40:56;;;;;;;7.60;5.75;;;10.60;72.40;;;;;;5056662;28;20036;-79
2022/10/15 08:43:27;;;;;;;8.98;5.25;;;10.60;72.50;;;;;;5062139;28;20045;-78
2022/10/15 08:45:58;;;;;;;7.85;5.43;;;10.50;71.50;;;;;;5057725;28;20399;-78
2022/10/15 08:48:33;;;;;;;12.52;6.82;;;10.40;71.70;;;;;;5066315;28;20039;-78
2022/10/15 08:51:05;;;;;;;10.40;6.68;;;10.50;72.00;;;;;;5052904;28;20021;-77
2022/10/15 08:53:38;;;;;;;8.38;5.50;;;10.50;72.10;;;;;;5056538;28;20040;-78
2022/10/15 08:56:25;;;;;;;7.40;5.03;;;10.70;71.50;;;;;;5050897;28;20021;-81
2022/10/15 08:59:16;;;;;;;10.40;7.18;;;10.60;71.20;;;;;;5063094;28;20584;-82
2022/10/15 09:01:54;;;;;;;12.43;5.70;;;10.70;71.60;;;;;;5059381;28;20017;-85
2022/10/15 09:04:23;;;;;;;13.35;6.38;;;10.70;71.20;;;;;;5062469;28;20459;-82
2022/10/15 09:06:55;;;;;;;9.82;5.18;;;10.80;71.00;;;;;;5058980;28;20104;-81
2022/10/15 09:09:48;;;;;;;14.15;5.80;;;10.90;70.60;;;;;;5040001;28;20033;-81
2022/10/15 09:12:40;;;;;;;11.40;5.60;;;11.00;70.40;;;;;;5024945;28;20037;-78
2022/10/15 09:15:12;;;;;;;13.05;6.50;;;11.00;70.70;;;;;;5057239;28;20064;-81
2022/10/15 09:17:40;;;;;;;12.70;5.65;;;11.10;70.80;;;;;;5058030;28;20025;-81
2022/10/15 09:20:13;;;;;;;11.75;5.55;;;11.20;70.50;;;;;;5063647;28;20052;-82
2022/10/15 09:22:39;;;;;;;10.07;5.22;;;11.30;70.20;;;;;;5039007;28;20032;-83
2022/10/15 09:25:20;;;;;;;9.77;4.40;;;11.30;70.00;;;;;;5042851;28;20024;-84
2022/10/15 09:27:47;;;;;;;10.70;4.53;;;11.30;69.70;;;;;;5057584;28;20017;-82
2022/10/15 09:30:13;;;;;;;;;;;11.20;69.40;;;;;;5059165;28;20115;-83
2022/10/15 09:32:50;;;;;;;10.05;3.95;;;11.20;69.90;;;;;;5068809;28;19939;-80
2022/10/15 09:35:31;;;;;;;9.88;3.97;;;11.10;69.20;;;;;;5056359;28;20432;-79
2022/10/15 09:38:16;;;;;;;10.35;4.43;;;10.90;69.70;;;;;;5056222;28;20486;-79
2022/10/15 09:41:17;;;;;;;8.52;4.18;;;10.80;70.00;;;;;;5049684;28;20556;-77
2022/10/15 09:43:50;;;;;;;9.60;4.90;;;10.70;69.90;;;;;;5045249;28;20116;-77
2022/10/15 09:46:16;;;;;;;7.38;4.78;;;10.60;70.30;;;;;;5058168;28;20017;-77
2022/10/15 09:49:17;;;;;;;8.88;4.40;;;10.70;70.40;;;;;;5055613;28;20037;-76
2022/10/15 09:52:09;;;;;;;7.97;4.75;;;10.80;70.60;;;;;;5046315;28;20494;-76
2022/10/15 09:55:22;;;;;;;11.40;4.93;;;10.70;70.40;;;;;;5061168;28;20016;-76
2022/10/15 09:57:52;;;;;;;11.02;5.32;;;10.60;70.50;;;;;;4991945;28;20051;-76
2022/10/15 10:00:19;;;;;;;10.60;4.80;;;10.40;71.40;;;;;;5063788;28;20028;-76
2022/10/15 10:03:06;;;;;;;8.32;5.63;;;10.30;71.60;;;;;;5064230;28;20024;-75
2022/10/15 10:05:35;;;;;;;7.80;5.43;;;10.30;72.10;;;;;;5066028;28;20103;-76
2022/10/15 10:08:15;;;;;;;11.30;5.53;;;10.40;72.30;;;;;;5052615;28;20031;-75
2022/10/15 10:10:41;;;;;;;9.73;5.45;;;10.40;72.50;;;;;;5056340;28;20437;-77
2022/10/15 10:13:24;;;;;;;13.48;5.72;;;10.50;72.70;;;;;;5038368;28;20024;-77
2022/10/15 10:15:55;;;;;;;9.18;5.93;;;10.50;72.40;;;;;;5040451;28;20415;-75
2022/10/15 10:18:24;;;;;;;15.30;7.13;;;10.50;72.40;;;;;;5058742;28;20024;-77
2022/10/15 10:20:59;;;;;;;16.98;6.97;;;10.60;72.70;;;;;;5062057;28;20043;-76
2022/10/15 10:23:30;;;;;;;13.60;6.10;;;10.70;72.50;;;;;;5051553;28;20051;-76
2022/10/15 10:26:03;;;;;;;14.43;5.53;;;10.70;72.40;;;;;;5061145;28;20024;-77
2022/10/15 10:28:52;;;;;;;8.98;5.90;;;10.80;71.60;;;;;;5066047;28;20021;-77
2022/10/15 10:31:30;;;;;;;7.88;4.60;;;10.80;71.80;;;;;;5058959;28;20021;-78
2022/10/15 10:33:59;;;;;;;;;;;10.90;71.00;;;;;;5056831;28;20056;-76
2022/10/15 10:36:33;;;;;;;11.18;5.22;;;10.80;71.40;;;;;;5069034;28;19904;-78
2022/10/15 10:39:21;;;;;;;8.80;6.45;;;10.80;71.40;;;;;;5075711;28;20024;-78
2022/10/15 10:41:51;;;;;;;10.10;6.72;;;10.80;71.60;;;;;;5038792;28;20037;-81
2022/10/15 10:44:31;;;;;;;11.82;7.65;;;10.80;71.70;;;;;;5072850;28;20041;-82
2022/10/15 10:47:18;;;;;;;13.68;6.10;;;10.80;71.70;;;;;;5052045;28;20150;-80
2022/10/15 10:49:49;;;;;;;13.07;5.97;;;10.90;71.60;;;;;;5056267;28;20044;-81
2022/10/15 10:52:30;;;;;;;15.00;7.47;;;10.90;71.60;;;;;;5056059;28;20051;-81
2022/10/15 10:55:18;;;;;;;10.02;6.20;;;11.00;71.70;;;;;;5056959;28;20029;-81
2022/10/15 10:57:46;;;;;;;11.07;6.97;;;11.00;71.20;;;;;;5049571;28;20482;-80
2022/10/15 11:00:32;;;;;;;9.02;6.90;;;11.00;71.20;;;;;;5062999;28;20068;-79
2022/10/15 11:02:58;;;;;;;7.47;5.30;;;11.10;71.40;;;;;;5056604;28;20032;-79
2022/10/15 11:05:26;;;;;;;15.75;6.20;;;11.20;71.10;;;;;;5066834;28;20024;-80
2022/10/15 11:08:17;;;;;;;10.68;7.20;;;11.20;71.10;;;;;;5060300;28;20040;-81
2022/10/15 11:10:53;;;;;;;13.43;5.82;;;11.30;71.10;;;;;;5062748;28;20033;-81
2022/10/15 11:13:31;;;;;;;15.07;6.13;;;11.20;70.70;;;;;;5063670;28;20025;-81
2022/10/15 11:16:14;;;;;;;12.32;6.63;;;11.20;71.20;;;;;;5066752;28;20020;-81
2022/10/15 11:19:29;;;;;;;11.38;5.43;;;11.20;71.00;;;;;;5038906;28;20441;-82
2022/10/15 11:22:33;;;;;;;12.40;5.70;;;11.30;70.90;;;;;;5049252;28;20037;-81
2022/10/15 11:25:15;;;;;;;13.80;6.65;;;11.40;70.20;;;;;;4962058;28;20027;-80
2022/10/15 11:27:57;;;;;;;10.25;5.95;;;11.40;70.30;;;;;;5049577;28;20040;-78
2022/10/15 11:31:04;;;;;;;11.07;5.15;;;11.50;70.00;;;;;;5056121;28;20033;-80
2022/10/15 11:33:56;;;;;;;12.60;7.50;;;11.60;69.70;;;;;;4960384;28;20130;-81
2022/10/15 11:36:55;;;;;;;13.68;7.95;;;11.70;69.50;;;;;;4949599;29;20095;-80
2022/10/15 11:39:41;;;;;;;13.70;8.82;;;11.70;69.20;;;;;;4955464;29;20028;-80
2022/10/15 11:42:13;;;;;;;15.33;6.47;;;11.80;69.20;;;;;;4955115;28;20039;-82
2022/10/15 11:45:09;;;;;;;11.18;6.60;;;11.80;68.80;;;;;;4959290;28;20289;-81
2022/10/15 11:47:55;;;;;;;13.88;5.30;;;11.80;69.00;;;;;;4951944;28;20063;-82
2022/10/15 11:50:26;;;;;;;9.85;6.30;;;11.80;69.10;;;;;;4960719;28;20051;-82
2022/10/15 11:53:01;;;;;;;12.68;6.93;;;11.80;68.80;;;;;;4960865;28;20019;-82
2022/10/15 11:55:36;;;;;;;10.10;5.57;;;11.80;69.10;;;;;;4959970;28;20056;-81
2022/10/15 11:58:10;;;;;;;12.27;6.57;;;11.80;69.00;;;;;;4959405;28;20085;-81
2022/10/15 12:00:49;;;;;;;16.40;8.32;;;11.90;68.90;;;;;;4964162;28;20043;-82
2022/10/15 12:03:20;;;;;;;11.00;6.65;;;12.00;69.00;;;;;;4957359;28;20037;-81
2022/10/15 12:05:53;;;;;;;8.68;5.97;;;12.10;68.60;;;;;;4960850;28;20041;-80
2022/10/15 12:08:22;;;;;;;7.60;6.05;;;12.10;68.30;;;;;;5045116;28;20040;-80
2022/10/15 12:11:07;;;;;;;11.10;6.82;;;12.00;68.00;;;;;;5061149;28;20025;-79
2022/10/15 12:14:12;;;;;;;10.10;6.60;;;12.00;68.50;;;;;;5055921;28;20086;-81
2022/10/15 12:17:02;;;;;;;10.45;6.55;;;12.00;68.50;;;;;;5062190;28;20028;-79
2022/10/15 12:19:55;;;;;;;11.93;5.57;;;11.80;68.80;;;;;;5079596;28;20021;-83
2022/10/15 12:22:38;;;;;;;9.40;4.90;;;11.70;68.90;;;;;;5048730;28;20083;-82
2022/10/15 12:25:05;;;;;;;10.30;6.47;;;11.70;69.20;;;;;;5039123;28;20036;-82
2022/10/15 12:27:34;;;;;;;11.25;6.15;;;11.70;69.20;;;;;;5063646;28;20021;-81
2022/10/15 12:30:04;;;;;;;13.85;6.20;;;11.60;69.10;;;;;;5059885;28;20123;-82
2022/10/15 12:32:37;;;;;;;9.75;6.15;;;11.60;69.60;;;;;;5066283;28;20470;-81
2022/10/15 12:35:22;;;;;;;13.60;7.18;;;11.60;69.60;;;;;;5038378;28;20057;-82
2022/10/15 12:37:51;;;;;;;16.58;9.02;;;11.50;69.80;;;;;;5025745;28;20471;-81
2022/10/15 12:40:34;;;;;;;13.98;7.13;;;11.50;69.50;;;;;;5027422;28;20353;-82
2022/10/15 12:43:13;;;;;;;13.77;6.68;;;11.50;69.10;;;;;;5035412;28;20017;-82
2022/10/15 12:45:47;;;;;;;15.45;8.30;;;11.50;69.30;;;;;;5036913;28;20096;-81
2022/10/15 12:48:19;;;;;;;14.55;6.32;;;11.30;69.40;;;;;;5025759;28;20589;-81
2022/10/15 12:50:45;;;;;;;13.05;6.15;;;11.20;69.90;;;;;;5030503;28;20399;-81
2022/10/15 12:53:31;;;;;;;9.82;6.18;;;11.20;69.80;;;;;;5025497;28;20592;-80
2022/10/15 12:56:09;;;;;;;9.07;5.65;;;11.10;70.30;;;;;;5028116;28;20114;-80
2022/10/15 12:58:37;;;;;;;11.70;6.07;;;11.00;70.70;;;;;;5030117;28;20022;-81
2022/10/15 13:01:12;;;;;;;11.60;6.07;;;10.90;71.10;;;;;;5028638;28;20144;-79
2022/10/15 13:03:55;;;;;;;14.88;7.63;;;10.90;71.60;;;;;;5018786;28;20026;-79
2022/10/15 13:06:23;;;;;;;10.00;5.63;;;11.00;71.30;;;;;;5019613;28;20013;-81
2022/10/15 13:09:28;;;;;;;9.98;6.78;;;11.00;71.30;;;;;;5018811;28;20033;-81
2022/10/15 13:11:56;;;;;;;13.27;7.72;;;10.80;71.40;;;;;;5017610;28;20037;-81